Terminal Aerodrome Forecast
Issued by NWS St Louis, MO

Home | Current Version | Previous Version | Graphics & Text | Print | Product List | Glossary On
Versions: 1 2 3 4 5 6 7 8 9 10 11 12 13 14 15 16 17 18 19 20 21 22 23 24 25 26 27 28 29 30 31 32 33 34
000
FTUS43 KLSX 010900 AAA
TAFSTL
TAF AMD
KSTL 010911Z 0109/0212 18010KT P6SM SCT070 BKN250
     FM011400 20011KT 5SM -SHRA VCTS SCT030 BKN070CB
     FM011600 21013G20KT P6SM BKN035
     FM012100 22014KT P6SM VCTS BKN040CB
     FM020100 22007KT P6SM VCTS BKN050CB
     FM020600 23007KT P6SM SCT050 BKN100=

USA.gov is the U.S. government's official web portal to all federal, state and local government web resources and services.